Time;durP1;ratioP1;P1;durP2;ratioP2;P2;SDS_P1;SDS_P2;PMS_P1;PMS_P2;Temp;Humidity;BMP_temperature;BMP_pressure;BME280_temperature;BME280_humidity;BME280_pressure;Samples;Min_cycle;Max_cycle;Signal;HPM_P1;HPM_P2
2021/01/29 00:02:02;;;;;;;29.43;16.13;;;5.40;99.90;;;;;;4819000;29;20223;-84
2021/01/29 00:04:55;;;;;;;21.90;15.57;;;5.30;99.90;;;;;;4846366;29;20443;-83
2021/01/29 00:07:21;;;;;;;26.30;15.90;;;5.40;99.90;;;;;;4806114;29;20851;-83
2021/01/29 00:09:47;;;;;;;24.80;15.20;;;5.50;99.90;;;;;;4793668;29;20424;-84
2021/01/29 00:12:12;;;;;;;24.43;15.97;;;5.50;99.90;;;;;;4805366;29;20454;-83
2021/01/29 00:14:38;;;;;;;23.63;15.10;;;5.40;99.90;;;;;;4813210;29;20351;-84
2021/01/29 00:17:04;;;;;;;24.87;15.43;;;5.50;99.90;;;;;;4829120;29;20271;-83
2021/01/29 00:19:32;;;;;;;25.13;15.90;;;5.50;99.90;;;;;;4863714;29;20227;-84
2021/01/29 00:22:00;;;;;;;22.87;15.20;;;5.50;99.90;;;;;;4865458;29;20402;-84
2021/01/29 00:24:53;;;;;;;21.80;16.33;;;5.60;99.90;;;;;;4861872;29;20517;-83
2021/01/29 00:27:48;;;;;;;21.20;16.47;;;5.60;99.90;;;;;;4841690;29;20868;-84
2021/01/29 00:30:18;;;;;;;24.40;16.17;;;5.60;99.90;;;;;;4806249;29;20459;-84
2021/01/29 00:32:46;;;;;;;22.47;16.30;;;5.60;99.90;;;;;;4831370;29;20479;-84
2021/01/29 00:35:13;;;;;;;25.17;16.80;;;5.70;99.90;;;;;;4846935;29;20475;-84
2021/01/29 00:38:10;;;;;;;25.10;17.53;;;5.70;99.90;;;;;;4864005;29;20419;-84
2021/01/29 00:40:38;;;;;;;32.03;17.37;;;5.70;99.90;;;;;;4824306;29;20405;-83
2021/01/29 00:43:07;;;;;;;23.17;16.70;;;5.80;99.90;;;;;;4823620;29;20991;-83
2021/01/29 00:45:35;;;;;;;23.87;16.50;;;5.80;99.90;;;;;;4825205;29;20496;-84
2021/01/29 00:48:02;;;;;;;29.73;19.07;;;5.90;99.90;;;;;;4838186;29;20434;-84
2021/01/29 00:50:56;;;;;;;27.50;17.27;;;5.90;99.90;;;;;;4824613;29;20954;-84
2021/01/29 00:53:24;;;;;;;26.37;17.90;;;5.90;99.90;;;;;;4805096;29;20946;-83
2021/01/29 00:55:50;;;;;;;30.73;18.17;;;5.90;99.90;;;;;;4786721;29;20440;-84
2021/01/29 00:58:50;;;;;;;26.10;18.10;;;6.00;99.90;;;;;;4785209;29;20801;-83
2021/01/29 01:01:41;;;;;;;26.50;16.77;;;6.00;99.90;;;;;;4753315;30;20439;-84
2021/01/29 01:04:49;;;;;;;24.10;17.33;;;6.00;99.90;;;;;;4730316;30;20419;-83
2021/01/29 01:07:41;;;;;;;20.47;16.20;;;6.00;99.90;;;;;;4733474;30;20452;-83
2021/01/29 01:10:44;;;;;;;27.07;18.17;;;6.00;99.90;;;;;;4731402;30;20451;-83
2021/01/29 01:13:11;;;;;;;26.27;18.47;;;6.00;99.90;;;;;;4667541;30;20465;-83
2021/01/29 01:15:38;;;;;;;28.77;18.40;;;6.00;99.90;;;;;;4669117;30;20472;-83
2021/01/29 01:18:06;;;;;;;21.87;17.27;;;6.00;99.90;;;;;;4737556;30;20431;-85
2021/01/29 01:20:55;;;;;;;21.43;16.90;;;5.90;99.90;;;;;;4733490;30;20461;-83
2021/01/29 01:23:22;;;;;;;31.27;21.17;;;6.00;99.90;;;;;;4715510;30;20431;-84
2021/01/29 01:26:20;;;;;;;41.70;27.53;;;6.00;99.90;;;;;;4731066;30;20434;-84
2021/01/29 01:29:21;;;;;;;41.37;26.23;;;6.30;99.90;;;;;;4697195;30;20422;-84
2021/01/29 01:31:47;;;;;;;48.73;31.70;;;6.60;99.90;;;;;;4724615;30;20925;-84
2021/01/29 01:37:05;;;;;;;55.73;32.37;;;6.70;99.90;;;;;;5118482;27;20785;-81
2021/01/29 01:39:32;;;;;;;57.27;31.30;;;6.90;99.90;;;;;;5092565;27;20452;-81
2021/01/29 01:41:58;;;;;;;42.70;28.87;;;6.90;99.90;;;;;;5040580;27;20500;-81
2021/01/29 01:44:35;;;;;;;45.73;29.37;;;6.90;99.90;;;;;;5106001;27;20509;-81
2021/01/29 01:47:27;;;;;;;53.73;26.47;;;7.00;99.90;;;;;;5097019;28;20403;-80
2021/01/29 01:50:32;;;;;;;40.77;25.47;;;7.10;99.90;;;;;;5074711;27;20390;-80
2021/01/29 01:53:29;;;;;;;39.00;26.73;;;7.20;99.90;;;;;;4998975;28;20404;-80
2021/01/29 01:56:21;;;;;;;44.53;28.27;;;7.20;99.90;;;;;;4991587;28;20429;-81
2021/01/29 01:59:22;;;;;;;51.17;26.83;;;7.30;99.90;;;;;;4980411;28;20472;-81
2021/01/29 02:01:54;;;;;;;56.33;32.17;;;7.40;99.90;;;;;;4917998;29;20424;-81
2021/01/29 02:04:22;;;;;;;57.67;30.60;;;7.40;99.90;;;;;;4918641;29;20392;-81
2021/01/29 02:07:16;;;;;;;59.23;34.27;;;7.60;99.90;;;;;;4902626;28;20420;-80
2021/01/29 02:09:47;;;;;;;55.63;32.87;;;7.70;99.90;;;;;;4895291;28;20773;-80
2021/01/29 02:12:17;;;;;;;66.40;36.37;;;7.60;99.90;;;;;;4916958;29;20399;-81
2021/01/29 02:14:45;;;;;;;59.37;38.63;;;7.60;99.90;;;;;;4920288;29;20434;-81
2021/01/29 02:17:40;;;;;;;63.97;41.03;;;7.60;99.90;;;;;;4916242;29;20443;-81
2021/01/29 02:20:33;;;;;;;69.37;41.70;;;7.70;99.90;;;;;;4906012;28;20413;-81
2021/01/29 02:23:29;;;;;;;60.57;43.43;;;7.70;99.90;;;;;;4905439;29;20458;-81
2021/01/29 02:26:32;;;;;;;70.93;44.77;;;7.80;99.90;;;;;;4903687;29;21049;-81
2021/01/29 02:29:10;;;;;;;76.60;49.87;;;7.90;99.90;;;;;;4919585;28;20396;-81
2021/01/29 02:31:51;;;;;;;75.77;50.33;;;7.90;99.90;;;;;;4914386;28;20397;-81
2021/01/29 02:35:08;;;;;;;87.67;45.83;;;7.90;99.90;;;;;;4935002;28;20366;-81
2021/01/29 02:37:40;;;;;;;67.33;45.13;;;7.80;99.90;;;;;;5024941;28;20385;-81
2021/01/29 02:40:24;;;;;;;68.30;43.90;;;7.90;99.90;;;;;;5075789;28;20414;-81
2021/01/29 02:43:12;;;;;;;68.63;46.40;;;8.00;99.90;;;;;;5062489;28;21366;-81
2021/01/29 02:46:40;;;;;;;69.17;44.30;;;8.00;99.90;;;;;;5110507;28;20373;-81
2021/01/29 02:49:35;;;;;;;66.10;42.70;;;8.00;99.90;;;;;;4973909;28;20493;-81
2021/01/29 02:52:15;;;;;;;53.87;36.17;;;8.10;99.90;;;;;;4993954;28;20418;-81
2021/01/29 02:55:18;;;;;;;65.23;36.73;;;8.10;99.90;;;;;;4983215;28;21214;-80
2021/01/29 02:58:17;;;;;;;63.67;41.37;;;8.10;99.90;;;;;;4997616;28;20391;-81
2021/01/29 03:01:21;;;;;;;57.57;33.93;;;8.20;99.90;;;;;;4993656;28;20423;-81
2021/01/29 03:04:22;;;;;;;63.33;29.30;;;8.20;99.90;;;;;;4983795;28;20391;-81
2021/01/29 03:07:01;;;;;;;50.67;30.07;;;8.20;99.90;;;;;;4924683;28;20413;-81
2021/01/29 03:10:13;;;;;;;64.10;38.63;;;8.20;99.90;;;;;;4982330;28;20493;-81
2021/01/29 03:12:51;;;;;;;65.77;36.20;;;8.10;99.90;;;;;;4894198;29;20423;-81
2021/01/29 03:15:49;;;;;;;51.13;32.20;;;8.10;99.90;;;;;;4924521;29;20559;-82
2021/01/29 03:18:29;;;;;;;43.53;28.73;;;8.10;99.90;;;;;;4869713;29;20561;-80
2021/01/29 03:21:16;;;;;;;43.53;23.07;;;8.00;99.90;;;;;;4926137;29;20949;-80
2021/01/29 03:23:51;;;;;;;34.27;19.93;;;8.10;99.90;;;;;;4910098;29;20488;-80
2021/01/29 03:26:56;;;;;;;51.10;23.07;;;8.20;99.90;;;;;;4908694;29;20417;-79
2021/01/29 03:29:49;;;;;;;25.87;16.70;;;8.20;99.90;;;;;;4892518;29;20408;-81
2021/01/29 03:32:52;;;;;;;32.37;18.47;;;8.30;99.90;;;;;;4835488;29;21195;-81
2021/01/29 03:35:33;;;;;;;36.80;19.90;;;8.30;99.90;;;;;;4801090;29;20450;-81
2021/01/29 03:38:03;;;;;;;43.93;18.43;;;8.30;99.90;;;;;;4810947;29;20562;-81
2021/01/29 03:40:31;;;;;;;30.40;16.40;;;8.20;99.90;;;;;;4813940;29;20553;-81
2021/01/29 03:43:34;;;;;;;36.33;18.10;;;8.20;99.90;;;;;;4797694;29;20531;-83
2021/01/29 03:46:30;;;;;;;26.63;15.00;;;8.20;99.90;;;;;;4805951;29;20427;-83
2021/01/29 03:49:21;;;;;;;33.20;17.57;;;8.20;99.90;;;;;;4801437;29;20554;-81
2021/01/29 03:52:23;;;;;;;32.57;16.33;;;8.20;99.90;;;;;;4799735;29;20503;-81
2021/01/29 03:55:25;;;;;;;33.47;17.30;;;8.10;99.90;;;;;;4826696;29;20423;-83
2021/01/29 03:58:16;;;;;;;30.00;13.33;;;8.20;99.90;;;;;;4876056;29;20392;-83
2021/01/29 04:01:05;;;;;;;27.13;14.30;;;8.20;99.90;;;;;;4870260;29;20420;-83
2021/01/29 04:03:39;;;;;;;25.90;12.80;;;8.30;99.90;;;;;;4900825;29;20429;-83
2021/01/29 04:06:19;;;;;;;15.07;11.13;;;8.20;99.90;;;;;;4919190;29;20482;-83
2021/01/29 04:09:00;;;;;;;21.93;12.70;;;8.20;99.90;;;;;;4971981;28;20391;-83
2021/01/29 04:11:56;;;;;;;16.73;11.20;;;8.20;99.90;;;;;;5065223;28;20412;-80
2021/01/29 04:14:44;;;;;;;18.40;10.40;;;8.20;99.90;;;;;;5038765;28;20432;-83
2021/01/29 04:17:40;;;;;;;15.40;10.27;;;8.30;99.90;;;;;;5025054;28;20849;-83
2021/01/29 04:20:22;;;;;;;15.33;9.60;;;8.30;99.90;;;;;;4992123;28;20414;-83
2021/01/29 04:22:53;;;;;;;12.20;9.10;;;8.30;99.90;;;;;;4992879;28;20410;-83
2021/01/29 04:25:24;;;;;;;14.70;8.97;;;8.30;99.90;;;;;;4970444;28;20500;-83
2021/01/29 04:27:56;;;;;;;12.03;7.60;;;8.30;99.90;;;;;;4986876;28;20393;-82
2021/01/29 04:30:27;;;;;;;8.93;7.50;;;8.20;99.90;;;;;;4975050;28;20397;-80
2021/01/29 04:33:05;;;;;;;11.30;7.43;;;8.20;99.90;;;;;;4992884;28;20441;-80
2021/01/29 04:35:32;;;;;;;11.90;7.67;;;8.30;99.90;;;;;;4987647;28;20416;-80
2021/01/29 04:38:20;;;;;;;11.43;8.03;;;8.30;99.90;;;;;;4995406;28;20504;-82
2021/01/29 04:41:08;;;;;;;10.83;8.17;;;8.30;99.90;;;;;;4999647;28;20485;-80
2021/01/29 04:44:05;;;;;;;10.57;8.13;;;8.30;99.90;;;;;;5004006;28;20401;-80
2021/01/29 04:46:53;;;;;;;12.93;9.50;;;8.20;99.90;;;;;;5000213;28;20494;-80
2021/01/29 04:49:48;;;;;;;19.70;11.43;;;8.10;99.90;;;;;;4984726;28;20380;-82
2021/01/29 04:52:36;;;;;;;16.60;11.03;;;8.20;99.90;;;;;;4993100;28;20467;-82
2021/01/29 04:55:25;;;;;;;14.57;11.20;;;8.30;99.90;;;;;;4978370;28;20554;-82
2021/01/29 04:58:28;;;;;;;16.40;10.73;;;8.30;99.90;;;;;;4988028;28;20572;-82
2021/01/29 05:01:34;;;;;;;17.40;11.97;;;8.30;99.90;;;;;;4989496;28;20548;-82
2021/01/29 05:04:21;;;;;;;19.63;13.43;;;8.30;99.90;;;;;;4942047;28;20444;-82
2021/01/29 05:07:00;;;;;;;20.10;14.67;;;8.30;99.90;;;;;;4931986;28;20421;-82
2021/01/29 05:09:42;;;;;;;14.07;12.37;;;8.30;99.90;;;;;;4964657;28;20991;-82
2021/01/29 05:12:31;;;;;;;13.00;11.47;;;8.40;99.90;;;;;;4938729;28;20401;-81
2021/01/29 05:15:33;;;;;;;13.73;10.30;;;8.30;99.90;;;;;;4928542;28;20480;-81
2021/01/29 05:18:30;;;;;;;11.37;9.53;;;8.30;99.90;;;;;;4926959;28;20939;-82
2021/01/29 05:21:09;;;;;;;11.23;8.97;;;8.20;99.90;;;;;;4952395;28;20436;-82
2021/01/29 05:27:25;;;;;;;10.77;7.60;;;8.30;99.90;;;;;;4961380;28;20444;-83
2021/01/29 05:30:24;;;;;;;8.83;6.53;;;8.40;99.90;;;;;;4942192;28;20385;-83
2021/01/29 05:33:26;;;;;;;9.93;5.50;;;8.50;99.90;;;;;;4958084;28;20451;-82
2021/01/29 05:35:52;;;;;;;6.93;5.60;;;8.50;99.90;;;;;;4968632;28;21017;-82
2021/01/29 05:38:54;;;;;;;11.37;6.70;;;8.40;99.90;;;;;;4964931;28;20386;-82
2021/01/29 05:41:52;;;;;;;10.63;8.17;;;8.50;99.90;;;;;;5041053;28;20204;-82
2021/01/29 05:44:38;;;;;;;17.40;12.83;;;8.40;99.90;;;;;;5069239;28;20418;-82
2021/01/29 05:47:26;;;;;;;19.07;14.70;;;8.50;99.90;;;;;;5047119;28;20413;-81
2021/01/29 05:50:17;;;;;;;21.03;16.40;;;8.50;99.90;;;;;;5061596;28;20411;-81
2021/01/29 05:53:21;;;;;;;20.40;15.93;;;8.50;99.90;;;;;;5042099;28;20406;-82
2021/01/29 05:55:47;;;;;;;26.93;16.47;;;8.50;99.90;;;;;;5040613;28;20462;-82
2021/01/29 05:58:31;;;;;;;20.57;17.23;;;8.50;99.90;;;;;;5054684;28;20447;-82
2021/01/29 06:01:35;;;;;;;17.67;14.90;;;8.50;99.90;;;;;;5061835;28;20296;-82
2021/01/29 06:04:07;;;;;;;19.73;15.00;;;8.60;99.90;;;;;;5035997;28;20432;-82
2021/01/29 06:06:50;;;;;;;20.00;13.23;;;8.50;99.90;;;;;;5001818;28;21228;-82
2021/01/29 06:09:50;;;;;;;18.80;14.80;;;8.50;99.90;;;;;;5033865;28;21234;-82
2021/01/29 06:12:55;;;;;;;21.77;13.97;;;8.50;99.90;;;;;;5002116;28;20421;-82
2021/01/29 06:16:15;;;;;;;16.43;13.43;;;8.50;99.90;;;;;;5015916;28;20433;-82
2021/01/29 06:19:09;;;;;;;20.17;14.77;;;8.50;99.90;;;;;;4998105;28;20517;-82
2021/01/29 06:25:53;;;;;;;21.13;16.50;;;8.50;99.90;;;;;;4984124;28;20395;-82
2021/01/29 06:28:29;;;;;;;21.43;15.53;;;8.40;99.90;;;;;;4969444;28;20406;-82
2021/01/29 06:31:15;;;;;;;19.80;15.40;;;8.40;99.90;;;;;;4953929;28;20417;-82
2021/01/29 06:34:19;;;;;;;12.97;10.43;;;8.40;99.90;;;;;;4956667;28;20421;-82
2021/01/29 06:37:10;;;;;;;12.17;9.67;;;8.40;99.90;;;;;;4975354;28;20430;-82
2021/01/29 06:39:49;;;;;;;18.07;8.83;;;8.50;99.90;;;;;;5008773;28;20445;-82
2021/01/29 06:42:34;;;;;;;11.40;8.33;;;8.50;99.90;;;;;;5024374;28;21043;-82
2021/01/29 06:45:15;;;;;;;9.23;7.20;;;8.50;99.90;;;;;;4989310;28;20406;-82
2021/01/29 06:48:08;;;;;;;11.77;8.27;;;8.50;99.90;;;;;;5020654;28;23391;-82
2021/01/29 06:51:11;;;;;;;8.93;6.37;;;8.50;99.90;;;;;;4968865;28;20418;-82
2021/01/29 06:54:07;;;;;;;5.93;4.87;;;8.60;99.90;;;;;;5003323;28;20563;-81
2021/01/29 06:56:35;;;;;;;7.80;5.13;;;8.90;99.90;;;;;;5034803;28;20432;-82
2021/01/29 06:59:32;;;;;;;8.13;6.33;;;8.90;99.90;;;;;;5062347;28;20396;-82
2021/01/29 07:02:37;;;;;;;7.33;5.23;;;8.90;99.90;;;;;;5083295;28;20403;-83
2021/01/29 07:05:38;;;;;;;33.10;7.63;;;8.90;99.90;;;;;;5063403;28;20423;-83
2021/01/29 07:08:32;;;;;;;9.40;7.37;;;9.00;99.90;;;;;;5083667;28;20411;-83
2021/01/29 07:11:36;;;;;;;7.53;6.77;;;9.00;99.90;;;;;;5062212;28;20422;-82
2021/01/29 07:14:14;;;;;;;7.90;5.93;;;9.00;99.90;;;;;;5085603;28;20422;-82
2021/01/29 07:16:55;;;;;;;7.90;7.10;;;9.00;99.90;;;;;;5067619;28;20438;-81
2021/01/29 07:19:47;;;;;;;6.40;5.10;;;9.00;99.90;;;;;;5064582;28;20403;-83
2021/01/29 07:22:45;;;;;;;5.60;4.60;;;9.00;99.90;;;;;;5082711;28;20417;-83
2021/01/29 07:28:54;;;;;;;5.73;5.23;;;8.90;99.90;;;;;;5060287;28;20396;-81
2021/01/29 07:34:59;;;;;;;6.43;4.90;;;8.90;99.90;;;;;;5037401;28;20431;-80
2021/01/29 07:37:48;;;;;;;7.33;4.80;;;8.90;99.90;;;;;;5022538;28;20487;-82
2021/01/29 07:40:53;;;;;;;5.67;5.10;;;8.80;99.90;;;;;;5033946;28;20416;-82
2021/01/29 07:44:08;;;;;;;6.23;5.30;;;8.80;99.90;;;;;;5040087;28;20411;-81
2021/01/29 07:47:12;;;;;;;11.10;5.40;;;8.80;99.90;;;;;;5003907;28;20482;-82
2021/01/29 07:50:18;;;;;;;7.93;5.77;;;8.80;99.90;;;;;;4949752;28;20484;-81
2021/01/29 07:52:49;;;;;;;9.40;6.07;;;8.80;99.90;;;;;;4945256;28;20920;-85
2021/01/29 07:56:03;;;;;;;9.70;7.27;;;8.80;99.90;;;;;;4943140;28;20420;-81
2021/01/29 07:58:42;;;;;;;10.57;7.23;;;8.80;99.90;;;;;;4886514;29;21264;-81
2021/01/29 08:01:26;;;;;;;8.33;6.60;;;8.90;99.90;;;;;;4900273;29;20430;-81
2021/01/29 08:04:28;;;;;;;6.00;5.40;;;8.90;99.90;;;;;;4885226;29;20434;-80
2021/01/29 08:07:06;;;;;;;10.10;6.90;;;8.90;99.90;;;;;;4856680;29;20390;-80
2021/01/29 08:09:39;;;;;;;8.53;7.00;;;8.90;99.90;;;;;;4867059;29;20407;-80
2021/01/29 08:12:09;;;;;;;9.17;7.63;;;8.90;99.90;;;;;;4878535;29;20422;-81
2021/01/29 08:15:13;;;;;;;10.10;6.87;;;8.90;99.90;;;;;;4901643;29;20429;-80
2021/01/29 08:18:15;;;;;;;10.00;7.93;;;8.90;99.90;;;;;;4885263;29;20373;-83
2021/01/29 08:21:23;;;;;;;10.23;7.77;;;8.90;99.90;;;;;;4918849;29;20516;-81
2021/01/29 08:25:03;;;;;;;12.00;8.17;;;8.90;99.90;;;;;;4904156;29;21230;-80
2021/01/29 08:27:43;;;;;;;11.60;8.43;;;8.90;99.90;;;;;;4867618;29;20407;-80
2021/01/29 08:30:39;;;;;;;12.27;8.67;;;8.90;99.90;;;;;;4849891;29;20927;-80
2021/01/29 08:33:32;;;;;;;11.70;8.27;;;8.90;99.90;;;;;;4910205;29;20472;-79
2021/01/29 08:36:21;;;;;;;10.73;9.20;;;8.90;99.90;;;;;;4924382;28;20494;-81
2021/01/29 08:38:53;;;;;;;12.43;8.40;;;8.90;99.90;;;;;;4955498;28;20416;-79
2021/01/29 08:41:50;;;;;;;12.30;8.17;;;8.90;99.90;;;;;;4925943;28;20396;-80
2021/01/29 08:44:44;;;;;;;8.67;7.37;;;8.90;99.90;;;;;;4934843;28;20372;-79
2021/01/29 08:47:12;;;;;;;14.33;9.33;;;8.90;99.90;;;;;;4949228;28;20486;-79
2021/01/29 08:49:38;;;;;;;14.83;8.50;;;9.00;99.90;;;;;;4940474;28;20398;-79
2021/01/29 08:52:34;;;;;;;11.60;9.23;;;9.00;99.90;;;;;;4923456;28;20452;-82
2021/01/29 08:55:47;;;;;;;10.53;7.70;;;9.10;99.90;;;;;;4926184;28;20981;-82
2021/01/29 08:58:59;;;;;;;12.30;8.77;;;9.10;99.90;;;;;;4924017;28;20417;-82
2021/01/29 09:01:32;;;;;;;16.87;9.57;;;9.10;99.90;;;;;;4946166;28;21621;-80
2021/01/29 09:08:19;;;;;;;14.47;8.60;;;9.10;99.90;;;;;;4979798;28;20402;-81
2021/01/29 09:11:15;;;;;;;15.20;9.00;;;9.10;99.90;;;;;;4957785;28;20413;-81
2021/01/29 09:13:44;;;;;;;13.80;8.27;;;9.10;99.90;;;;;;4959477;28;20459;-80
2021/01/29 09:16:22;;;;;;;22.20;9.00;;;9.20;99.90;;;;;;4920189;28;20382;-82
2021/01/29 09:18:57;;;;;;;21.43;8.60;;;9.10;99.90;;;;;;4930155;28;20397;-81
2021/01/29 09:21:39;;;;;;;17.03;7.90;;;9.10;99.90;;;;;;4941690;28;20552;-82
2021/01/29 09:24:11;;;;;;;15.30;6.67;;;9.20;99.90;;;;;;4954063;28;20434;-83
2021/01/29 09:26:45;;;;;;;16.60;7.47;;;9.10;99.90;;;;;;4964247;28;20443;-82
2021/01/29 09:29:28;;;;;;;14.30;7.53;;;9.10;99.90;;;;;;4943586;28;20390;-81
2021/01/29 09:32:05;;;;;;;15.77;8.80;;;9.10;99.90;;;;;;4917248;28;20979;-84
2021/01/29 09:34:43;;;;;;;13.30;7.27;;;9.10;99.90;;;;;;4973655;28;20431;-83
2021/01/29 09:37:19;;;;;;;16.63;8.13;;;9.10;99.90;;;;;;4962944;28;20382;-83
2021/01/29 09:39:58;;;;;;;13.27;6.50;;;9.00;99.90;;;;;;4940843;28;20419;-82
2021/01/29 09:42:26;;;;;;;13.17;6.70;;;9.00;99.90;;;;;;4978454;28;20499;-80
2021/01/29 09:45:06;;;;;;;15.50;6.17;;;9.00;99.90;;;;;;4991873;28;20413;-81
2021/01/29 09:47:40;;;;;;;16.43;6.03;;;9.00;99.90;;;;;;5091877;27;20414;-81
2021/01/29 09:50:09;;;;;;;17.73;7.50;;;9.00;99.90;;;;;;5078232;28;21347;-81
2021/01/29 09:53:08;;;;;;;19.13;7.33;;;9.00;99.90;;;;;;5078256;28;20361;-81
2021/01/29 09:56:25;;;;;;;21.20;7.80;;;8.90;99.90;;;;;;5073632;28;20414;-79
2021/01/29 09:58:57;;;;;;;14.10;7.43;;;8.90;99.90;;;;;;5055659;28;20422;-81
2021/01/29 10:01:34;;;;;;;26.43;11.60;;;8.90;99.90;;;;;;5083771;28;20397;-79
2021/01/29 10:04:17;;;;;;;24.13;9.23;;;8.90;99.90;;;;;;5077870;28;20417;-79
2021/01/29 10:06:59;;;;;;;19.13;9.53;;;8.90;99.90;;;;;;5061637;28;20434;-80
2021/01/29 10:09:34;;;;;;;16.20;7.53;;;8.90;99.90;;;;;;5061881;28;20391;-81
2021/01/29 10:12:17;;;;;;;26.13;10.73;;;8.80;99.90;;;;;;5064864;28;20499;-82
2021/01/29 10:15:03;;;;;;;26.63;10.70;;;8.80;99.90;;;;;;5065687;28;20417;-80
2021/01/29 10:17:35;;;;;;;19.43;9.73;;;8.80;99.90;;;;;;5065357;28;20428;-79
2021/01/29 10:20:23;;;;;;;24.63;10.27;;;8.80;99.90;;;;;;5063582;28;20912;-81
2021/01/29 10:23:15;;;;;;;24.70;9.60;;;8.80;99.90;;;;;;5066356;28;20462;-80
2021/01/29 10:26:10;;;;;;;28.97;8.87;;;8.70;99.90;;;;;;5064855;28;20580;-81
2021/01/29 10:28:58;;;;;;;25.60;9.73;;;8.80;99.90;;;;;;5078959;28;20392;-83
2021/01/29 10:31:28;;;;;;;21.47;10.80;;;8.70;99.90;;;;;;5060507;28;20962;-81
2021/01/29 10:34:27;;;;;;;28.40;10.83;;;8.70;99.90;;;;;;5064402;28;20452;-81
2021/01/29 10:37:18;;;;;;;28.63;12.83;;;8.70;99.90;;;;;;5075281;28;20449;-79
2021/01/29 10:39:59;;;;;;;19.40;10.63;;;8.70;99.90;;;;;;5080816;28;20419;-80
2021/01/29 10:42:34;;;;;;;28.43;12.37;;;8.70;99.90;;;;;;5079839;28;20387;-83
2021/01/29 10:45:01;;;;;;;22.90;10.97;;;8.80;99.90;;;;;;5078957;28;20512;-81
2021/01/29 10:48:01;;;;;;;24.13;10.47;;;8.80;99.90;;;;;;5085335;28;20500;-82
2021/01/29 10:50:33;;;;;;;28.67;11.27;;;8.90;99.90;;;;;;5080775;28;20909;-84
2021/01/29 10:53:20;;;;;;;30.83;10.57;;;9.00;99.90;;;;;;5081913;28;20406;-83
2021/01/29 10:55:56;;;;;;;30.93;11.33;;;9.10;99.90;;;;;;5077153;28;20791;-80
2021/01/29 10:58:49;;;;;;;26.57;10.70;;;9.20;99.90;;;;;;5082928;28;20882;-80
2021/01/29 11:01:45;;;;;;;19.00;9.07;;;9.40;99.90;;;;;;5092119;28;20424;-83
2021/01/29 11:04:32;;;;;;;29.60;9.07;;;9.60;99.90;;;;;;5080608;28;20381;-82
2021/01/29 11:07:15;;;;;;;31.07;10.00;;;9.70;99.90;;;;;;5079320;28;20792;-80
2021/01/29 11:09:43;;;;;;;20.37;9.40;;;9.70;99.90;;;;;;5077098;28;20366;-81
2021/01/29 11:12:52;;;;;;;32.47;10.20;;;9.80;99.90;;;;;;5061853;28;20522;-81
2021/01/29 11:15:22;;;;;;;17.70;9.10;;;9.90;99.90;;;;;;4984899;28;20955;-82
2021/01/29 11:17:57;;;;;;;24.87;8.57;;;9.90;99.90;;;;;;5003565;28;20418;-81
2021/01/29 11:20:34;;;;;;;27.17;10.30;;;9.90;99.90;;;;;;5011079;28;20385;-81
2021/01/29 11:23:42;;;;;;;18.57;8.30;;;9.90;99.90;;;;;;4985234;28;20925;-81
2021/01/29 11:26:12;;;;;;;23.00;9.43;;;9.80;99.90;;;;;;4981990;28;20425;-81
2021/01/29 11:29:08;;;;;;;19.73;8.43;;;9.80;99.90;;;;;;4982583;28;20474;-81
2021/01/29 11:31:49;;;;;;;22.57;8.57;;;9.80;99.90;;;;;;4976501;28;20387;-81
2021/01/29 11:34:59;;;;;;;15.57;7.33;;;9.90;99.90;;;;;;4980014;28;20409;-81
2021/01/29 11:37:58;;;;;;;16.00;7.33;;;10.00;99.90;;;;;;5000329;28;20410;-83
2021/01/29 11:40:31;;;;;;;19.67;9.07;;;9.90;99.90;;;;;;4997703;28;20429;-82
2021/01/29 11:43:27;;;;;;;17.70;8.53;;;9.90;99.90;;;;;;5034105;28;20456;-82
2021/01/29 11:46:04;;;;;;;15.23;9.00;;;9.80;99.90;;;;;;5016184;28;20403;-81
2021/01/29 11:48:40;;;;;;;18.87;8.10;;;10.00;99.90;;;;;;5031254;28;20414;-82
2021/01/29 11:51:17;;;;;;;24.53;7.90;;;10.10;99.90;;;;;;5061863;28;20520;-82
2021/01/29 11:54:04;;;;;;;22.60;8.00;;;10.10;99.90;;;;;;5059996;28;21015;-81
2021/01/29 11:56:54;;;;;;;23.40;8.60;;;10.10;99.90;;;;;;5078934;28;20488;-82
2021/01/29 11:59:45;;;;;;;14.00;6.40;;;10.20;99.90;;;;;;5061692;28;20397;-82
2021/01/29 12:02:36;;;;;;;19.10;6.73;;;10.50;99.90;;;;;;5054550;28;20415;-82
2021/01/29 12:05:30;;;;;;;22.57;8.30;;;11.20;99.90;;;;;;5069830;28;20387;-84
2021/01/29 12:08:36;;;;;;;19.40;6.77;;;11.00;99.90;;;;;;5072650;28;20605;-81
2021/01/29 12:11:21;;;;;;;15.10;5.33;;;10.70;99.90;;;;;;4994076;28;20406;-81
2021/01/29 12:14:09;;;;;;;19.30;6.10;;;10.90;99.90;;;;;;4984660;28;20394;-81
2021/01/29 12:17:05;;;;;;;15.37;7.00;;;10.90;99.90;;;;;;4997942;28;20978;-81
2021/01/29 12:19:38;;;;;;;22.73;6.70;;;10.80;99.90;;;;;;4943190;28;21149;-82
2021/01/29 12:22:31;;;;;;;13.13;5.70;;;10.70;99.90;;;;;;4956969;28;23330;-81
2021/01/29 12:24:58;;;;;;;26.13;7.47;;;10.70;99.90;;;;;;4963620;28;20397;-82
2021/01/29 12:28:03;;;;;;;23.30;8.23;;;10.40;99.90;;;;;;4956988;28;20487;-82
2021/01/29 12:30:45;;;;;;;20.63;9.20;;;10.20;99.90;;;;;;4887433;29;20499;-82
2021/01/29 12:33:24;;;;;;;17.00;8.83;;;9.90;99.90;;;;;;4899155;29;20410;-82
2021/01/29 12:35:59;;;;;;;23.53;10.57;;;9.70;99.90;;;;;;4882088;29;20449;-82
2021/01/29 12:38:39;;;;;;;21.83;8.33;;;9.70;99.90;;;;;;4881932;29;20426;-83
2021/01/29 12:41:39;;;;;;;15.13;8.60;;;9.70;99.90;;;;;;4898675;29;20414;-82
2021/01/29 12:44:26;;;;;;;21.97;9.07;;;9.80;99.90;;;;;;4902255;29;20467;-83
2021/01/29 12:47:25;;;;;;;22.37;9.20;;;9.80;99.90;;;;;;4908418;29;20551;-82
2021/01/29 12:50:28;;;;;;;22.77;9.47;;;9.80;99.90;;;;;;4922863;28;20432;-81
2021/01/29 12:53:02;;;;;;;20.73;8.57;;;9.70;99.90;;;;;;4920027;29;20405;-81
2021/01/29 12:56:02;;;;;;;15.43;9.27;;;9.70;99.90;;;;;;4948729;28;20421;-81
2021/01/29 12:59:06;;;;;;;29.40;10.80;;;9.70;99.90;;;;;;4960907;28;20415;-81
2021/01/29 13:01:34;;;;;;;31.07;11.77;;;9.60;99.90;;;;;;4947189;28;20401;-81
2021/01/29 13:04:53;;;;;;;25.50;10.50;;;9.50;99.90;;;;;;4947393;28;21226;-81
2021/01/29 13:07:25;;;;;;;32.03;11.40;;;9.50;99.90;;;;;;4942314;28;20395;-81
2021/01/29 13:10:18;;;;;;;20.70;11.27;;;9.50;99.90;;;;;;4946083;28;20462;-81
2021/01/29 13:13:16;;;;;;;23.10;9.50;;;9.50;99.90;;;;;;4968909;28;20543;-83
2021/01/29 13:16:00;;;;;;;21.57;8.73;;;9.50;99.90;;;;;;4966718;28;20428;-82
2021/01/29 13:18:48;;;;;;;22.70;9.00;;;9.50;99.90;;;;;;4966177;28;20498;-82
2021/01/29 13:21:34;;;;;;;30.10;10.30;;;9.60;99.90;;;;;;4961552;28;20439;-82
2021/01/29 13:24:14;;;;;;;23.03;9.77;;;9.70;99.90;;;;;;4950661;28;20381;-82
2021/01/29 13:26:44;;;;;;;12.33;6.73;;;9.90;99.90;;;;;;4967982;28;20567;-83
2021/01/29 13:29:24;;;;;;;14.63;6.77;;;10.50;99.90;;;;;;4969014;28;20400;-81
2021/01/29 13:31:53;;;;;;;15.50;7.53;;;10.60;99.90;;;;;;4966327;28;20400;-81
2021/01/29 13:34:29;;;;;;;13.40;6.80;;;10.50;99.90;;;;;;4973470;28;20377;-80
2021/01/29 13:37:04;;;;;;;19.60;7.50;;;10.40;99.90;;;;;;5101233;28;20465;-82
2021/01/29 13:39:38;;;;;;;19.43;7.40;;;10.20;99.90;;;;;;5085335;28;20414;-82
2021/01/29 13:42:29;;;;;;;13.83;7.23;;;10.20;99.90;;;;;;5067601;28;20435;-82
2021/01/29 13:45:05;;;;;;;11.13;5.67;;;10.30;99.90;;;;;;5114539;28;20414;-82
2021/01/29 13:47:42;;;;;;;13.30;7.93;;;10.30;99.90;;;;;;5087634;28;20445;-83
2021/01/29 13:50:33;;;;;;;13.00;7.80;;;10.10;99.90;;;;;;5089318;28;20405;-82
2021/01/29 13:53:29;;;;;;;14.70;7.73;;;10.00;99.90;;;;;;5085027;28;20426;-83
2021/01/29 13:56:12;;;;;;;26.00;8.20;;;9.80;99.90;;;;;;5022789;28;20420;-83
2021/01/29 13:58:49;;;;;;;23.33;7.00;;;9.60;99.90;;;;;;5013017;28;20458;-82
2021/01/29 14:01:28;;;;;;;18.43;7.60;;;9.50;99.90;;;;;;5021786;28;21059;-82
2021/01/29 14:04:10;;;;;;;13.10;7.57;;;9.40;99.90;;;;;;5017654;28;20413;-83
2021/01/29 14:07:03;;;;;;;13.70;6.07;;;9.30;99.90;;;;;;5022271;28;20413;-82
2021/01/29 14:09:30;;;;;;;13.17;5.37;;;9.30;99.90;;;;;;4982891;28;20425;-83
2021/01/29 14:12:17;;;;;;;10.90;4.77;;;9.20;99.90;;;;;;5001285;28;20458;-81
2021/01/29 14:15:07;;;;;;;14.40;5.00;;;9.20;99.90;;;;;;4994557;28;22864;-82
2021/01/29 14:17:38;;;;;;;8.20;3.70;;;9.10;99.90;;;;;;4997092;28;20431;-83
2021/01/29 14:20:16;;;;;;;13.30;4.40;;;9.00;99.90;;;;;;4999633;28;20485;-82
2021/01/29 14:23:04;;;;;;;13.60;4.60;;;8.90;99.90;;;;;;5001314;28;20386;-82
2021/01/29 14:25:59;;;;;;;7.80;4.37;;;9.00;99.90;;;;;;4999993;28;20406;-82
2021/01/29 14:28:32;;;;;;;12.50;4.63;;;9.40;99.90;;;;;;4987307;28;20382;-82
2021/01/29 14:30:59;;;;;;;9.00;4.20;;;9.40;99.90;;;;;;5003118;28;20394;-82
2021/01/29 14:33:52;;;;;;;11.97;5.30;;;9.30;99.90;;;;;;5013545;28;20456;-82
2021/01/29 14:36:27;;;;;;;14.50;5.43;;;9.20;99.90;;;;;;5035107;28;20445;-82
2021/01/29 14:39:03;;;;;;;9.43;4.70;;;9.00;99.90;;;;;;5005681;28;20608;-82
2021/01/29 14:41:45;;;;;;;13.80;5.87;;;9.00;99.90;;;;;;5004183;28;20563;-83